sensor_id;sensor_type;location;lat;lon;timestamp;temperature;humidity
10083;DHT22;5080;48.528;8.078;2024-03-29T00:01:45;8.60;99.90
10083;DHT22;5080;48.528;8.078;2024-03-29T00:04:11;8.60;99.90
10083;DHT22;5080;48.528;8.078;2024-03-29T00:06:37;8.60;99.90
10083;DHT22;5080;48.528;8.078;2024-03-29T00:09:03;8.60;99.90
10083;DHT22;5080;48.528;8.078;2024-03-29T00:11:28;8.70;99.90
10083;DHT22;5080;48.528;8.078;2024-03-29T00:13:54;8.70;99.90
10083;DHT22;5080;48.528;8.078;2024-03-29T00:16:20;8.70;99.90
10083;DHT22;5080;48.528;8.078;2024-03-29T00:18:48;8.70;99.90
10083;DHT22;5080;48.528;8.078;2024-03-29T00:21:14;8.80;99.90
10083;DHT22;5080;48.528;8.078;2024-03-29T00:23:40;8.80;99.90
10083;DHT22;5080;48.528;8.078;2024-03-29T00:26:06;8.90;99.90
10083;DHT22;5080;48.528;8.078;2024-03-29T00:28:31;8.80;99.90
10083;DHT22;5080;48.528;8.078;2024-03-29T00:30:57;8.80;99.90
10083;DHT22;5080;48.528;8.078;2024-03-29T00:33:24;8.80;99.90
10083;DHT22;5080;48.528;8.078;2024-03-29T00:35:51;8.80;99.90
10083;DHT22;5080;48.528;8.078;2024-03-29T00:38:17;8.90;99.90
10083;DHT22;5080;48.528;8.078;2024-03-29T00:40:42;8.80;99.90
10083;DHT22;5080;48.528;8.078;2024-03-29T00:43:08;8.80;99.90
10083;DHT22;5080;48.528;8.078;2024-03-29T00:45:34;8.90;99.90
10083;DHT22;5080;48.528;8.078;2024-03-29T00:48:00;8.90;99.90
10083;DHT22;5080;48.528;8.078;2024-03-29T00:50:26;8.90;99.90
10083;DHT22;5080;48.528;8.078;2024-03-29T00:52:53;8.90;99.90
10083;DHT22;5080;48.528;8.078;2024-03-29T00:55:19;8.90;99.90
10083;DHT22;5080;48.528;8.078;2024-03-29T00:57:44;9.00;99.90
10083;DHT22;5080;48.528;8.078;2024-03-29T01:00:11;9.20;99.90
10083;DHT22;5080;48.528;8.078;2024-03-29T01:02:37;9.40;99.90
10083;DHT22;5080;48.528;8.078;2024-03-29T01:05:03;9.50;99.90
10083;DHT22;5080;48.528;8.078;2024-03-29T01:07:29;9.50;99.90
10083;DHT22;5080;48.528;8.078;2024-03-29T01:09:56;9.50;99.90
10083;DHT22;5080;48.528;8.078;2024-03-29T01:12:22;9.50;99.90
10083;DHT22;5080;48.528;8.078;2024-03-29T01:14:48;9.50;99.90
10083;DHT22;5080;48.528;8.078;2024-03-29T01:17:14;9.50;99.90
10083;DHT22;5080;48.528;8.078;2024-03-29T01:19:40;9.60;99.90
10083;DHT22;5080;48.528;8.078;2024-03-29T01:22:05;9.70;99.90
10083;DHT22;5080;48.528;8.078;2024-03-29T01:24:31;9.90;99.90
10083;DHT22;5080;48.528;8.078;2024-03-29T01:26:58;9.90;99.90
10083;DHT22;5080;48.528;8.078;2024-03-29T01:29:24;10.00;99.90
10083;DHT22;5080;48.528;8.078;2024-03-29T01:31:50;10.00;99.90
10083;DHT22;5080;48.528;8.078;2024-03-29T01:34:16;10.00;99.90
10083;DHT22;5080;48.528;8.078;2024-03-29T01:36:42;10.10;99.90
10083;DHT22;5080;48.528;8.078;2024-03-29T01:39:07;10.10;99.90
10083;DHT22;5080;48.528;8.078;2024-03-29T01:41:34;10.10;99.90
10083;DHT22;5080;48.528;8.078;2024-03-29T01:44:01;10.10;99.90
10083;DHT22;5080;48.528;8.078;2024-03-29T01:46:28;10.10;99.90
10083;DHT22;5080;48.528;8.078;2024-03-29T01:48:55;10.20;99.90
10083;DHT22;5080;48.528;8.078;2024-03-29T01:51:23;10.20;99.90
10083;DHT22;5080;48.528;8.078;2024-03-29T01:53:51;10.40;99.90
10083;DHT22;5080;48.528;8.078;2024-03-29T01:56:20;10.30;99.90
10083;DHT22;5080;48.528;8.078;2024-03-29T01:58:49;10.40;99.90
10083;DHT22;5080;48.528;8.078;2024-03-29T02:01:18;10.50;99.90
10083;DHT22;5080;48.528;8.078;2024-03-29T02:03:46;10.70;99.90
10083;DHT22;5080;48.528;8.078;2024-03-29T02:06:13;10.70;99.90
10083;DHT22;5080;48.528;8.078;2024-03-29T02:08:41;10.80;99.90
10083;DHT22;5080;48.528;8.078;2024-03-29T02:11:08;10.80;99.90
10083;DHT22;5080;48.528;8.078;2024-03-29T02:13:34;10.80;99.90
10083;DHT22;5080;48.528;8.078;2024-03-29T02:16:02;10.80;99.90
10083;DHT22;5080;48.528;8.078;2024-03-29T02:18:31;10.90;99.90
10083;DHT22;5080;48.528;8.078;2024-03-29T02:20:57;11.00;99.90
10083;DHT22;5080;48.528;8.078;2024-03-29T02:23:27;11.10;99.90
10083;DHT22;5080;48.528;8.078;2024-03-29T02:25:56;11.10;99.90
10083;DHT22;5080;48.528;8.078;2024-03-29T02:28:23;11.20;99.90
10083;DHT22;5080;48.528;8.078;2024-03-29T02:30:50;11.30;99.90
10083;DHT22;5080;48.528;8.078;2024-03-29T02:33:17;11.40;99.90
10083;DHT22;5080;48.528;8.078;2024-03-29T02:35:44;11.40;99.90
10083;DHT22;5080;48.528;8.078;2024-03-29T02:38:11;11.50;99.90
10083;DHT22;5080;48.528;8.078;2024-03-29T02:40:37;11.30;99.90
10083;DHT22;5080;48.528;8.078;2024-03-29T02:43:05;11.60;99.90
10083;DHT22;5080;48.528;8.078;2024-03-29T02:45:32;11.60;99.90
10083;DHT22;5080;48.528;8.078;2024-03-29T02:47:59;11.70;99.90
10083;DHT22;5080;48.528;8.078;2024-03-29T02:50:25;11.70;99.90
10083;DHT22;5080;48.528;8.078;2024-03-29T02:52:51;11.80;99.90
10083;DHT22;5080;48.528;8.078;2024-03-29T02:55:17;11.90;99.90
10083;DHT22;5080;48.528;8.078;2024-03-29T02:57:44;11.90;99.90
10083;DHT22;5080;48.528;8.078;2024-03-29T03:00:12;11.80;99.90
10083;DHT22;5080;48.528;8.078;2024-03-29T03:02:39;11.80;99.90
10083;DHT22;5080;48.528;8.078;2024-03-29T03:05:07;11.80;99.90
10083;DHT22;5080;48.528;8.078;2024-03-29T03:07:34;11.90;99.90
10083;DHT22;5080;48.528;8.078;2024-03-29T03:10:18;11.90;99.90
10083;DHT22;5080;48.528;8.078;2024-03-29T03:13:03;12.00;99.90
10083;DHT22;5080;48.528;8.078;2024-03-29T03:15:31;12.10;99.90
10083;DHT22;5080;48.528;8.078;2024-03-29T03:17:58;12.10;99.90
10083;DHT22;5080;48.528;8.078;2024-03-29T03:20:24;12.20;99.90
10083;DHT22;5080;48.528;8.078;2024-03-29T03:22:53;12.20;99.90
10083;DHT22;5080;48.528;8.078;2024-03-29T03:25:19;12.40;99.90
10083;DHT22;5080;48.528;8.078;2024-03-29T03:27:46;12.40;99.90
10083;DHT22;5080;48.528;8.078;2024-03-29T03:30:12;12.40;99.90
10083;DHT22;5080;48.528;8.078;2024-03-29T03:32:40;12.40;99.90
10083;DHT22;5080;48.528;8.078;2024-03-29T03:35:07;12.40;99.90
10083;DHT22;5080;48.528;8.078;2024-03-29T03:37:33;12.40;99.90
10083;DHT22;5080;48.528;8.078;2024-03-29T03:39:59;12.40;99.90
10083;DHT22;5080;48.528;8.078;2024-03-29T03:42:26;12.40;99.90
10083;DHT22;5080;48.528;8.078;2024-03-29T03:44:51;12.40;99.90
10083;DHT22;5080;48.528;8.078;2024-03-29T03:47:18;12.40;99.90
10083;DHT22;5080;48.528;8.078;2024-03-29T03:49:45;12.40;99.90
10083;DHT22;5080;48.528;8.078;2024-03-29T03:52:12;12.40;99.90
10083;DHT22;5080;48.528;8.078;2024-03-29T03:54:38;12.40;99.90
10083;DHT22;5080;48.528;8.078;2024-03-29T03:57:05;12.50;99.90
10083;DHT22;5080;48.528;8.078;2024-03-29T03:59:30;12.40;99.90
10083;DHT22;5080;48.528;8.078;2024-03-29T04:01:57;12.50;99.90
10083;DHT22;5080;48.528;8.078;2024-03-29T04:04:23;12.50;99.90
10083;DHT22;5080;48.528;8.078;2024-03-29T04:06:51;12.50;99.90
10083;DHT22;5080;48.528;8.078;2024-03-29T04:09:17;12.70;99.90
10083;DHT22;5080;48.528;8.078;2024-03-29T04:11:44;12.70;99.90
10083;DHT22;5080;48.528;8.078;2024-03-29T04:14:10;12.70;99.90
10083;DHT22;5080;48.528;8.078;2024-03-29T04:16:36;12.70;99.90
10083;DHT22;5080;48.528;8.078;2024-03-29T04:19:02;12.60;99.90
10083;DHT22;5080;48.528;8.078;2024-03-29T04:21:29;12.70;99.90
10083;DHT22;5080;48.528;8.078;2024-03-29T04:23:56;12.70;99.90
10083;DHT22;5080;48.528;8.078;2024-03-29T04:26:23;12.70;99.90
10083;DHT22;5080;48.528;8.078;2024-03-29T04:28:48;12.70;99.90
10083;DHT22;5080;48.528;8.078;2024-03-29T04:31:15;12.70;99.90
10083;DHT22;5080;48.528;8.078;2024-03-29T04:33:41;12.80;99.90
10083;DHT22;5080;48.528;8.078;2024-03-29T04:36:08;12.70;99.90
10083;DHT22;5080;48.528;8.078;2024-03-29T04:38:34;12.60;99.90
10083;DHT22;5080;48.528;8.078;2024-03-29T04:41:02;12.50;99.90
10083;DHT22;5080;48.528;8.078;2024-03-29T04:43:28;12.50;99.90
10083;DHT22;5080;48.528;8.078;2024-03-29T04:46:02;12.60;99.90
10083;DHT22;5080;48.528;8.078;2024-03-29T04:48:29;12.60;99.90
10083;DHT22;5080;48.528;8.078;2024-03-29T04:50:56;12.60;99.90
10083;DHT22;5080;48.528;8.078;2024-03-29T04:53:23;12.70;99.90
10083;DHT22;5080;48.528;8.078;2024-03-29T04:55:53;12.60;99.90
10083;DHT22;5080;48.528;8.078;2024-03-29T04:58:22;12.50;99.90
10083;DHT22;5080;48.528;8.078;2024-03-29T05:00:48;12.50;99.90
10083;DHT22;5080;48.528;8.078;2024-03-29T05:03:16;12.50;99.90
10083;DHT22;5080;48.528;8.078;2024-03-29T05:05:43;12.50;99.90
10083;DHT22;5080;48.528;8.078;2024-03-29T05:08:10;12.60;99.90
10083;DHT22;5080;48.528;8.078;2024-03-29T05:10:37;12.60;99.90
10083;DHT22;5080;48.528;8.078;2024-03-29T05:13:04;12.60;99.90
10083;DHT22;5080;48.528;8.078;2024-03-29T05:15:32;12.60;99.90
10083;DHT22;5080;48.528;8.078;2024-03-29T05:17:59;12.60;99.90
10083;DHT22;5080;48.528;8.078;2024-03-29T05:20:26;12.60;99.90
10083;DHT22;5080;48.528;8.078;2024-03-29T05:22:53;12.60;99.90
10083;DHT22;5080;48.528;8.078;2024-03-29T05:25:19;12.60;99.90
10083;DHT22;5080;48.528;8.078;2024-03-29T05:27:56;12.60;99.90
10083;DHT22;5080;48.528;8.078;2024-03-29T05:30:23;12.60;99.90
10083;DHT22;5080;48.528;8.078;2024-03-29T05:32:51;12.70;99.90
10083;DHT22;5080;48.528;8.078;2024-03-29T05:35:18;12.70;99.90
10083;DHT22;5080;48.528;8.078;2024-03-29T05:37:45;12.70;99.90
10083;DHT22;5080;48.528;8.078;2024-03-29T05:40:15;12.70;99.90
10083;DHT22;5080;48.528;8.078;2024-03-29T05:42:42;12.70;99.90
10083;DHT22;5080;48.528;8.078;2024-03-29T05:45:23;12.70;99.90
10083;DHT22;5080;48.528;8.078;2024-03-29T05:47:53;12.50;99.90
10083;DHT22;5080;48.528;8.078;2024-03-29T05:50:20;12.20;99.90
10083;DHT22;5080;48.528;8.078;2024-03-29T05:52:46;11.90;99.90
10083;DHT22;5080;48.528;8.078;2024-03-29T05:55:13;11.60;99.90
10083;DHT22;5080;48.528;8.078;2024-03-29T05:57:40;11.40;99.90
10083;DHT22;5080;48.528;8.078;2024-03-29T06:00:11;11.30;99.90
10083;DHT22;5080;48.528;8.078;2024-03-29T06:02:38;11.10;99.90
10083;DHT22;5080;48.528;8.078;2024-03-29T06:05:07;10.90;99.90
10083;DHT22;5080;48.528;8.078;2024-03-29T06:07:35;10.90;99.90
10083;DHT22;5080;48.528;8.078;2024-03-29T06:10:02;10.90;99.90
10083;DHT22;5080;48.528;8.078;2024-03-29T06:12:30;10.90;99.90
10083;DHT22;5080;48.528;8.078;2024-03-29T06:14:57;10.90;99.90
10083;DHT22;5080;48.528;8.078;2024-03-29T06:17:41;11.00;99.90
10083;DHT22;5080;48.528;8.078;2024-03-29T06:20:09;11.00;99.90
10083;DHT22;5080;48.528;8.078;2024-03-29T06:22:36;11.00;99.90
10083;DHT22;5080;48.528;8.078;2024-03-29T06:25:03;11.10;99.90
10083;DHT22;5080;48.528;8.078;2024-03-29T06:27:31;11.20;99.90
10083;DHT22;5080;48.528;8.078;2024-03-29T06:29:57;11.10;99.90
10083;DHT22;5080;48.528;8.078;2024-03-29T06:32:24;11.20;99.90
10083;DHT22;5080;48.528;8.078;2024-03-29T06:34:51;11.30;99.90
10083;DHT22;5080;48.528;8.078;2024-03-29T06:37:18;11.30;99.90
10083;DHT22;5080;48.528;8.078;2024-03-29T06:39:47;11.30;99.90
10083;DHT22;5080;48.528;8.078;2024-03-29T06:42:14;11.40;99.90
10083;DHT22;5080;48.528;8.078;2024-03-29T06:44:40;11.40;99.90
10083;DHT22;5080;48.528;8.078;2024-03-29T06:47:07;11.40;99.90
10083;DHT22;5080;48.528;8.078;2024-03-29T06:49:34;11.50;99.90
10083;DHT22;5080;48.528;8.078;2024-03-29T06:52:01;11.50;99.90
10083;DHT22;5080;48.528;8.078;2024-03-29T06:54:30;11.40;99.90
10083;DHT22;5080;48.528;8.078;2024-03-29T06:56:58;11.20;99.90
10083;DHT22;5080;48.528;8.078;2024-03-29T06:59:25;11.10;99.90
10083;DHT22;5080;48.528;8.078;2024-03-29T07:01:51;10.90;99.90
10083;DHT22;5080;48.528;8.078;2024-03-29T07:04:19;10.80;99.90
10083;DHT22;5080;48.528;8.078;2024-03-29T07:06:46;10.60;99.90
10083;DHT22;5080;48.528;8.078;2024-03-29T07:09:16;10.50;99.90
10083;DHT22;5080;48.528;8.078;2024-03-29T07:11:45;10.40;99.90
10083;DHT22;5080;48.528;8.078;2024-03-29T07:14:12;10.30;99.90
10083;DHT22;5080;48.528;8.078;2024-03-29T07:16:38;10.40;99.90
10083;DHT22;5080;48.528;8.078;2024-03-29T07:19:05;10.40;99.90
10083;DHT22;5080;48.528;8.078;2024-03-29T07:21:32;10.30;99.90
10083;DHT22;5080;48.528;8.078;2024-03-29T07:23:59;10.20;99.90
10083;DHT22;5080;48.528;8.078;2024-03-29T07:26:25;10.10;99.90
10083;DHT22;5080;48.528;8.078;2024-03-29T07:28:53;10.00;99.90
10083;DHT22;5080;48.528;8.078;2024-03-29T07:31:20;9.90;99.90
10083;DHT22;5080;48.528;8.078;2024-03-29T07:33:47;10.00;99.90
10083;DHT22;5080;48.528;8.078;2024-03-29T07:36:14;10.00;99.90
10083;DHT22;5080;48.528;8.078;2024-03-29T07:38:42;10.00;99.90
10083;DHT22;5080;48.528;8.078;2024-03-29T07:41:08;10.10;99.90
10083;DHT22;5080;48.528;8.078;2024-03-29T07:43:39;10.10;99.90
10083;DHT22;5080;48.528;8.078;2024-03-29T07:46:08;10.10;99.90
10083;DHT22;5080;48.528;8.078;2024-03-29T07:48:35;10.20;99.90
10083;DHT22;5080;48.528;8.078;2024-03-29T07:51:02;10.20;99.90
10083;DHT22;5080;48.528;8.078;2024-03-29T07:53:29;10.20;99.90
10083;DHT22;5080;48.528;8.078;2024-03-29T07:55:56;10.20;99.90
10083;DHT22;5080;48.528;8.078;2024-03-29T07:58:22;10.30;99.90
10083;DHT22;5080;48.528;8.078;2024-03-29T08:00:51;10.30;99.90
10083;DHT22;5080;48.528;8.078;2024-03-29T08:03:19;10.30;99.90
10083;DHT22;5080;48.528;8.078;2024-03-29T08:05:57;10.30;99.90
10083;DHT22;5080;48.528;8.078;2024-03-29T08:08:24;10.40;99.90
10083;DHT22;5080;48.528;8.078;2024-03-29T08:10:52;10.50;99.90
10083;DHT22;5080;48.528;8.078;2024-03-29T08:13:19;10.50;99.90
10083;DHT22;5080;48.528;8.078;2024-03-29T08:15:47;10.60;99.90
10083;DHT22;5080;48.528;8.078;2024-03-29T08:18:14;10.60;99.90
10083;DHT22;5080;48.528;8.078;2024-03-29T08:20:42;10.70;99.90
10083;DHT22;5080;48.528;8.078;2024-03-29T08:23:09;10.70;99.90
10083;DHT22;5080;48.528;8.078;2024-03-29T08:25:37;10.80;99.90
10083;DHT22;5080;48.528;8.078;2024-03-29T08:28:04;10.80;99.90
10083;DHT22;5080;48.528;8.078;2024-03-29T08:30:31;10.90;99.90
10083;DHT22;5080;48.528;8.078;2024-03-29T08:33:01;11.00;99.90
10083;DHT22;5080;48.528;8.078;2024-03-29T08:35:29;11.00;99.90
10083;DHT22;5080;48.528;8.078;2024-03-29T08:37:57;11.10;99.90
10083;DHT22;5080;48.528;8.078;2024-03-29T08:40:24;11.10;99.90
10083;DHT22;5080;48.528;8.078;2024-03-29T08:42:53;11.20;99.90
10083;DHT22;5080;48.528;8.078;2024-03-29T08:45:20;11.30;99.90
10083;DHT22;5080;48.528;8.078;2024-03-29T08:47:47;11.30;99.90
10083;DHT22;5080;48.528;8.078;2024-03-29T08:50:14;11.50;99.90
10083;DHT22;5080;48.528;8.078;2024-03-29T08:52:41;11.60;99.90
10083;DHT22;5080;48.528;8.078;2024-03-29T08:55:09;11.60;99.90
10083;DHT22;5080;48.528;8.078;2024-03-29T08:57:36;11.60;99.90
10083;DHT22;5080;48.528;8.078;2024-03-29T09:00:03;11.70;99.90
10083;DHT22;5080;48.528;8.078;2024-03-29T09:02:30;11.70;99.90
10083;DHT22;5080;48.528;8.078;2024-03-29T09:04:57;11.70;99.90
10083;DHT22;5080;48.528;8.078;2024-03-29T09:07:31;11.70;99.90
10083;DHT22;5080;48.528;8.078;2024-03-29T09:09:59;11.70;99.90
10083;DHT22;5080;48.528;8.078;2024-03-29T09:12:26;11.80;99.90
10083;DHT22;5080;48.528;8.078;2024-03-29T09:14:53;11.80;99.90
10083;DHT22;5080;48.528;8.078;2024-03-29T09:17:20;11.80;99.90
10083;DHT22;5080;48.528;8.078;2024-03-29T09:19:50;11.90;99.90
10083;DHT22;5080;48.528;8.078;2024-03-29T09:22:17;11.90;99.90
10083;DHT22;5080;48.528;8.078;2024-03-29T09:24:45;11.90;99.90
10083;DHT22;5080;48.528;8.078;2024-03-29T09:27:12;11.90;99.90
10083;DHT22;5080;48.528;8.078;2024-03-29T09:29:39;12.00;99.90
10083;DHT22;5080;48.528;8.078;2024-03-29T09:32:06;12.00;99.90
10083;DHT22;5080;48.528;8.078;2024-03-29T09:34:33;12.00;99.90
10083;DHT22;5080;48.528;8.078;2024-03-29T09:37:00;12.10;99.90
10083;DHT22;5080;48.528;8.078;2024-03-29T09:39:27;12.10;99.90
10083;DHT22;5080;48.528;8.078;2024-03-29T09:41:58;12.20;99.90
10083;DHT22;5080;48.528;8.078;2024-03-29T09:44:31;12.20;99.90
10083;DHT22;5080;48.528;8.078;2024-03-29T09:47:02;12.20;99.90
10083;DHT22;5080;48.528;8.078;2024-03-29T09:49:31;12.20;99.90
10083;DHT22;5080;48.528;8.078;2024-03-29T09:51:58;12.30;99.90
10083;DHT22;5080;48.528;8.078;2024-03-29T09:54:26;12.40;99.90
10083;DHT22;5080;48.528;8.078;2024-03-29T09:56:55;12.50;99.90
10083;DHT22;5080;48.528;8.078;2024-03-29T09:59:22;12.70;99.90
10083;DHT22;5080;48.528;8.078;2024-03-29T10:01:50;12.80;99.90
10083;DHT22;5080;48.528;8.078;2024-03-29T10:04:18;12.90;99.90
10083;DHT22;5080;48.528;8.078;2024-03-29T10:06:46;13.10;99.90
10083;DHT22;5080;48.528;8.078;2024-03-29T10:09:16;13.20;99.90
10083;DHT22;5080;48.528;8.078;2024-03-29T10:11:43;13.40;99.90
10083;DHT22;5080;48.528;8.078;2024-03-29T10:14:12;13.50;99.90
10083;DHT22;5080;48.528;8.078;2024-03-29T10:16:38;13.70;99.90
10083;DHT22;5080;48.528;8.078;2024-03-29T10:19:07;14.10;99.90
10083;DHT22;5080;48.528;8.078;2024-03-29T10:21:35;14.40;99.90
10083;DHT22;5080;48.528;8.078;2024-03-29T10:24:11;14.70;99.90
10083;DHT22;5080;48.528;8.078;2024-03-29T10:26:38;15.00;99.90
10083;DHT22;5080;48.528;8.078;2024-03-29T10:29:05;15.20;99.90
10083;DHT22;5080;48.528;8.078;2024-03-29T10:31:35;15.30;99.90
10083;DHT22;5080;48.528;8.078;2024-03-29T10:34:03;15.50;99.90
10083;DHT22;5080;48.528;8.078;2024-03-29T10:36:30;15.60;99.90
10083;DHT22;5080;48.528;8.078;2024-03-29T10:39:01;15.70;99.90
10083;DHT22;5080;48.528;8.078;2024-03-29T10:41:29;15.90;99.90
10083;DHT22;5080;48.528;8.078;2024-03-29T10:43:56;16.00;99.90
10083;DHT22;5080;48.528;8.078;2024-03-29T10:46:24;16.20;99.90
10083;DHT22;5080;48.528;8.078;2024-03-29T10:48:53;16.30;99.90
10083;DHT22;5080;48.528;8.078;2024-03-29T10:51:20;16.40;99.90
10083;DHT22;5080;48.528;8.078;2024-03-29T10:53:48;16.60;99.90
10083;DHT22;5080;48.528;8.078;2024-03-29T10:56:15;16.70;99.90
10083;DHT22;5080;48.528;8.078;2024-03-29T10:58:47;16.80;99.90
10083;DHT22;5080;48.528;8.078;2024-03-29T11:01:15;16.80;99.90
10083;DHT22;5080;48.528;8.078;2024-03-29T11:03:45;16.80;99.90
10083;DHT22;5080;48.528;8.078;2024-03-29T11:06:21;16.90;99.90
10083;DHT22;5080;48.528;8.078;2024-03-29T11:08:52;16.90;99.90
10083;DHT22;5080;48.528;8.078;2024-03-29T11:11:21;17.00;99.90
10083;DHT22;5080;48.528;8.078;2024-03-29T11:13:56;17.00;99.90
10083;DHT22;5080;48.528;8.078;2024-03-29T11:16:24;17.00;99.90
10083;DHT22;5080;48.528;8.078;2024-03-29T11:18:52;16.70;99.90
10083;DHT22;5080;48.528;8.078;2024-03-29T11:21:20;16.50;99.90
10083;DHT22;5080;48.528;8.078;2024-03-29T11:23:50;16.40;99.90
10083;DHT22;5080;48.528;8.078;2024-03-29T11:26:18;16.30;99.90
10083;DHT22;5080;48.528;8.078;2024-03-29T11:28:48;16.30;99.90
10083;DHT22;5080;48.528;8.078;2024-03-29T11:31:15;16.20;99.90
10083;DHT22;5080;48.528;8.078;2024-03-29T11:33:45;16.10;99.90
10083;DHT22;5080;48.528;8.078;2024-03-29T11:36:15;15.90;99.90
10083;DHT22;5080;48.528;8.078;2024-03-29T11:38:45;15.80;99.90
10083;DHT22;5080;48.528;8.078;2024-03-29T11:41:13;15.70;99.90
10083;DHT22;5080;48.528;8.078;2024-03-29T11:43:41;15.80;99.90
10083;DHT22;5080;48.528;8.078;2024-03-29T11:46:10;15.90;99.90
10083;DHT22;5080;48.528;8.078;2024-03-29T11:48:37;15.90;99.90
10083;DHT22;5080;48.528;8.078;2024-03-29T11:51:06;15.90;99.90
10083;DHT22;5080;48.528;8.078;2024-03-29T11:53:34;15.90;99.90
10083;DHT22;5080;48.528;8.078;2024-03-29T11:56:03;15.90;99.90
10083;DHT22;5080;48.528;8.078;2024-03-29T11:58:31;15.90;99.90
10083;DHT22;5080;48.528;8.078;2024-03-29T12:01:00;15.90;99.90
10083;DHT22;5080;48.528;8.078;2024-03-29T12:03:29;15.90;99.90
10083;DHT22;5080;48.528;8.078;2024-03-29T12:05:57;16.00;99.90
10083;DHT22;5080;48.528;8.078;2024-03-29T12:08:29;16.00;99.90
10083;DHT22;5080;48.528;8.078;2024-03-29T12:10:57;15.90;99.90
10083;DHT22;5080;48.528;8.078;2024-03-29T12:13:25;15.90;99.90
10083;DHT22;5080;48.528;8.078;2024-03-29T12:15:52;15.90;99.90
10083;DHT22;5080;48.528;8.078;2024-03-29T12:18:19;15.90;99.90
10083;DHT22;5080;48.528;8.078;2024-03-29T12:20:48;15.90;99.90
10083;DHT22;5080;48.528;8.078;2024-03-29T12:23:16;15.80;99.90
10083;DHT22;5080;48.528;8.078;2024-03-29T12:25:44;15.80;99.90
10083;DHT22;5080;48.528;8.078;2024-03-29T12:28:12;15.90;99.90
10083;DHT22;5080;48.528;8.078;2024-03-29T12:30:43;15.90;99.90
10083;DHT22;5080;48.528;8.078;2024-03-29T12:33:13;16.00;99.90
10083;DHT22;5080;48.528;8.078;2024-03-29T12:35:41;16.10;99.90
10083;DHT22;5080;48.528;8.078;2024-03-29T12:38:11;16.10;99.90
10083;DHT22;5080;48.528;8.078;2024-03-29T12:40:38;16.10;99.90
10083;DHT22;5080;48.528;8.078;2024-03-29T12:43:06;16.20;99.90
10083;DHT22;5080;48.528;8.078;2024-03-29T12:45:34;16.20;99.90
10083;DHT22;5080;48.528;8.078;2024-03-29T12:48:08;16.20;99.90
10083;DHT22;5080;48.528;8.078;2024-03-29T12:50:35;16.20;99.90
10083;DHT22;5080;48.528;8.078;2024-03-29T12:53:06;16.30;99.90
10083;DHT22;5080;48.528;8.078;2024-03-29T12:55:34;16.40;99.90
10083;DHT22;5080;48.528;8.078;2024-03-29T12:58:05;16.60;99.90
10083;DHT22;5080;48.528;8.078;2024-03-29T13:00:34;16.70;99.90
10083;DHT22;5080;48.528;8.078;2024-03-29T13:03:03;16.90;99.90
10083;DHT22;5080;48.528;8.078;2024-03-29T13:05:30;16.90;99.90
10083;DHT22;5080;48.528;8.078;2024-03-29T13:08:00;17.00;99.90
10083;DHT22;5080;48.528;8.078;2024-03-29T13:10:34;16.60;99.90
10083;DHT22;5080;48.528;8.078;2024-03-29T13:13:00;16.50;99.90
10083;DHT22;5080;48.528;8.078;2024-03-29T13:15:27;16.30;99.90
10083;DHT22;5080;48.528;8.078;2024-03-29T13:17:55;16.10;99.90
10083;DHT22;5080;48.528;8.078;2024-03-29T13:20:23;16.10;99.90
10083;DHT22;5080;48.528;8.078;2024-03-29T13:22:51;16.00;99.90
10083;DHT22;5080;48.528;8.078;2024-03-29T13:25:20;15.90;99.90
10083;DHT22;5080;48.528;8.078;2024-03-29T13:27:49;15.80;99.90
10083;DHT22;5080;48.528;8.078;2024-03-29T13:30:19;15.80;99.90
10083;DHT22;5080;48.528;8.078;2024-03-29T13:32:47;16.00;99.90
10083;DHT22;5080;48.528;8.078;2024-03-29T13:35:14;16.00;99.90
10083;DHT22;5080;48.528;8.078;2024-03-29T13:37:44;16.10;99.90
10083;DHT22;5080;48.528;8.078;2024-03-29T13:40:12;16.10;99.90
10083;DHT22;5080;48.528;8.078;2024-03-29T13:42:40;16.10;99.90
10083;DHT22;5080;48.528;8.078;2024-03-29T13:45:08;16.20;99.90
10083;DHT22;5080;48.528;8.078;2024-03-29T13:47:36;16.20;99.90
10083;DHT22;5080;48.528;8.078;2024-03-29T13:50:04;16.20;99.90
10083;DHT22;5080;48.528;8.078;2024-03-29T13:52:30;16.30;99.90
10083;DHT22;5080;48.528;8.078;2024-03-29T13:54:59;16.30;99.90
10083;DHT22;5080;48.528;8.078;2024-03-29T13:57:26;16.30;99.90
10083;DHT22;5080;48.528;8.078;2024-03-29T13:59:53;16.40;99.90
10083;DHT22;5080;48.528;8.078;2024-03-29T14:02:20;16.40;99.90
10083;DHT22;5080;48.528;8.078;2024-03-29T14:04:48;16.40;99.90
10083;DHT22;5080;48.528;8.078;2024-03-29T14:07:15;16.50;99.90
10083;DHT22;5080;48.528;8.078;2024-03-29T14:09:43;16.50;99.90
10083;DHT22;5080;48.528;8.078;2024-03-29T14:12:12;16.50;99.90
10083;DHT22;5080;48.528;8.078;2024-03-29T14:14:39;16.50;99.90
10083;DHT22;5080;48.528;8.078;2024-03-29T14:17:07;16.60;99.90
10083;DHT22;5080;48.528;8.078;2024-03-29T14:19:34;16.60;99.90
10083;DHT22;5080;48.528;8.078;2024-03-29T14:22:02;16.70;99.90
10083;DHT22;5080;48.528;8.078;2024-03-29T14:24:30;16.80;99.90
10083;DHT22;5080;48.528;8.078;2024-03-29T14:26:58;16.80;99.90
10083;DHT22;5080;48.528;8.078;2024-03-29T14:29:26;16.90;99.90
10083;DHT22;5080;48.528;8.078;2024-03-29T14:31:53;16.90;99.90
10083;DHT22;5080;48.528;8.078;2024-03-29T14:34:20;17.00;99.90
10083;DHT22;5080;48.528;8.078;2024-03-29T14:36:47;17.00;99.90
10083;DHT22;5080;48.528;8.078;2024-03-29T14:39:14;17.10;99.90
10083;DHT22;5080;48.528;8.078;2024-03-29T14:41:41;17.10;99.90
10083;DHT22;5080;48.528;8.078;2024-03-29T14:44:08;17.10;99.90
10083;DHT22;5080;48.528;8.078;2024-03-29T14:46:37;17.10;99.90
10083;DHT22;5080;48.528;8.078;2024-03-29T14:49:04;16.90;99.90
10083;DHT22;5080;48.528;8.078;2024-03-29T14:51:32;16.80;99.90
10083;DHT22;5080;48.528;8.078;2024-03-29T14:53:59;16.80;99.90
10083;DHT22;5080;48.528;8.078;2024-03-29T14:56:28;16.90;99.90
10083;DHT22;5080;48.528;8.078;2024-03-29T14:58:56;17.00;99.90
10083;DHT22;5080;48.528;8.078;2024-03-29T15:01:23;17.10;99.90
10083;DHT22;5080;48.528;8.078;2024-03-29T15:03:52;17.30;99.90
10083;DHT22;5080;48.528;8.078;2024-03-29T15:06:20;17.40;99.90
10083;DHT22;5080;48.528;8.078;2024-03-29T15:08:48;17.60;99.90
10083;DHT22;5080;48.528;8.078;2024-03-29T15:11:15;17.70;99.90
10083;DHT22;5080;48.528;8.078;2024-03-29T15:13:42;17.70;99.90
10083;DHT22;5080;48.528;8.078;2024-03-29T15:16:09;17.70;99.90
10083;DHT22;5080;48.528;8.078;2024-03-29T15:18:36;17.70;99.90
10083;DHT22;5080;48.528;8.078;2024-03-29T15:21:05;17.60;99.90
10083;DHT22;5080;48.528;8.078;2024-03-29T15:23:33;17.50;99.90
10083;DHT22;5080;48.528;8.078;2024-03-29T15:26:02;17.50;99.90
10083;DHT22;5080;48.528;8.078;2024-03-29T15:28:29;17.60;99.90
10083;DHT22;5080;48.528;8.078;2024-03-29T15:31:15;17.60;99.90
10083;DHT22;5080;48.528;8.078;2024-03-29T15:33:45;17.40;99.90
10083;DHT22;5080;48.528;8.078;2024-03-29T15:36:13;17.30;99.90
10083;DHT22;5080;48.528;8.078;2024-03-29T15:38:40;17.20;99.90
10083;DHT22;5080;48.528;8.078;2024-03-29T15:41:07;17.10;99.90
10083;DHT22;5080;48.528;8.078;2024-03-29T15:43:34;17.10;99.90
10083;DHT22;5080;48.528;8.078;2024-03-29T15:46:02;17.10;99.90
10083;DHT22;5080;48.528;8.078;2024-03-29T15:48:29;16.90;99.90
10083;DHT22;5080;48.528;8.078;2024-03-29T15:50:56;16.80;99.90